sensor_id;sensor_type;location;lat;lon;timestamp;pressure;altitude;pressure_sealevel;temperature;humidity
36964;BME280;22878;48.616;35.326;2023-06-04T00:02:13;101525.41;;;10.65;100.00
36964;BME280;22878;48.616;35.326;2023-06-04T00:04:38;101523.61;;;10.62;100.00
36964;BME280;22878;48.616;35.326;2023-06-04T00:07:04;101519.77;;;10.56;100.00
36964;BME280;22878;48.616;35.326;2023-06-04T00:09:30;101519.98;;;10.54;100.00
36964;BME280;22878;48.616;35.326;2023-06-04T00:11:55;101525.06;;;10.53;100.00
36964;BME280;22878;48.616;35.326;2023-06-04T00:14:21;101526.70;;;10.51;100.00
36964;BME280;22878;48.616;35.326;2023-06-04T00:16:47;101524.02;;;10.49;100.00
36964;BME280;22878;48.616;35.326;2023-06-04T00:19:12;101523.33;;;10.46;100.00
36964;BME280;22878;48.616;35.326;2023-06-04T00:21:38;101524.00;;;10.43;100.00
36964;BME280;22878;48.616;35.326;2023-06-04T00:24:04;101525.53;;;10.39;100.00
36964;BME280;22878;48.616;35.326;2023-06-04T00:26:29;101530.82;;;10.37;100.00
36964;BME280;22878;48.616;35.326;2023-06-04T00:28:55;101530.29;;;10.35;100.00
36964;BME280;22878;48.616;35.326;2023-06-04T00:31:20;101531.36;;;10.33;100.00
36964;BME280;22878;48.616;35.326;2023-06-04T00:33:47;101532.51;;;10.29;100.00
36964;BME280;22878;48.616;35.326;2023-06-04T00:36:13;101532.98;;;10.25;100.00
36964;BME280;22878;48.616;35.326;2023-06-04T00:38:38;101538.31;;;10.22;100.00
36964;BME280;22878;48.616;35.326;2023-06-04T00:41:04;101539.12;;;10.20;100.00
36964;BME280;22878;48.616;35.326;2023-06-04T00:43:30;101541.50;;;10.18;100.00
36964;BME280;22878;48.616;35.326;2023-06-04T00:45:57;101538.49;;;10.16;100.00
36964;BME280;22878;48.616;35.326;2023-06-04T00:48:23;101536.94;;;10.12;100.00
36964;BME280;22878;48.616;35.326;2023-06-04T00:50:49;101537.19;;;10.09;100.00
36964;BME280;22878;48.616;35.326;2023-06-04T00:53:14;101542.05;;;10.07;100.00
36964;BME280;22878;48.616;35.326;2023-06-04T00:55:40;101541.40;;;10.06;100.00
36964;BME280;22878;48.616;35.326;2023-06-04T00:58:06;101547.09;;;10.04;100.00
36964;BME280;22878;48.616;35.326;2023-06-04T01:00:33;101542.28;;;10.00;100.00
36964;BME280;22878;48.616;35.326;2023-06-04T01:03:00;101544.42;;;9.96;100.00
36964;BME280;22878;48.616;35.326;2023-06-04T01:05:39;101543.34;;;9.93;100.00
36964;BME280;22878;48.616;35.326;2023-06-04T01:08:08;101544.56;;;9.90;100.00
36964;BME280;22878;48.616;35.326;2023-06-04T01:10:36;101546.70;;;9.86;100.00
36964;BME280;22878;48.616;35.326;2023-06-04T01:13:02;101553.31;;;9.81;100.00
36964;BME280;22878;48.616;35.326;2023-06-04T01:15:27;101551.06;;;9.79;100.00
36964;BME280;22878;48.616;35.326;2023-06-04T01:18:00;101551.69;;;9.76;100.00
36964;BME280;22878;48.616;35.326;2023-06-04T01:20:36;101555.20;;;9.74;100.00
36964;BME280;22878;48.616;35.326;2023-06-04T01:25:47;101565.80;;;9.72;100.00
36964;BME280;22878;48.616;35.326;2023-06-04T01:28:15;101574.67;;;9.73;100.00
36964;BME280;22878;48.616;35.326;2023-06-04T01:30:44;101573.08;;;9.73;100.00
36964;BME280;22878;48.616;35.326;2023-06-04T01:33:13;101567.25;;;9.74;100.00
36964;BME280;22878;48.616;35.326;2023-06-04T01:35:39;101566.22;;;9.74;100.00
36964;BME280;22878;48.616;35.326;2023-06-04T01:38:06;101569.34;;;9.71;100.00
36964;BME280;22878;48.616;35.326;2023-06-04T01:40:31;101566.82;;;9.68;100.00
36964;BME280;22878;48.616;35.326;2023-06-04T01:42:58;101569.45;;;9.66;100.00
36964;BME280;22878;48.616;35.326;2023-06-04T01:45:25;101569.71;;;9.65;100.00
36964;BME280;22878;48.616;35.326;2023-06-04T01:47:51;101576.96;;;9.65;100.00
36964;BME280;22878;48.616;35.326;2023-06-04T01:50:17;101575.14;;;9.67;100.00
36964;BME280;22878;48.616;35.326;2023-06-04T01:52:42;101579.29;;;9.67;100.00
36964;BME280;22878;48.616;35.326;2023-06-04T01:55:10;101585.70;;;9.70;100.00
36964;BME280;22878;48.616;35.326;2023-06-04T01:57:40;101586.45;;;9.70;100.00
36964;BME280;22878;48.616;35.326;2023-06-04T02:00:07;101590.17;;;9.70;100.00
36964;BME280;22878;48.616;35.326;2023-06-04T02:02:35;101591.36;;;9.71;100.00
36964;BME280;22878;48.616;35.326;2023-06-04T02:05:01;101595.95;;;9.74;100.00
36964;BME280;22878;48.616;35.326;2023-06-04T02:07:27;101600.05;;;9.77;100.00
36964;BME280;22878;48.616;35.326;2023-06-04T02:09:52;101602.13;;;9.80;100.00
36964;BME280;22878;48.616;35.326;2023-06-04T02:12:18;101604.89;;;9.83;100.00
36964;BME280;22878;48.616;35.326;2023-06-04T02:14:44;101606.26;;;9.88;100.00
36964;BME280;22878;48.616;35.326;2023-06-04T02:17:12;101596.42;;;9.93;100.00
36964;BME280;22878;48.616;35.326;2023-06-04T02:19:40;101597.38;;;9.98;100.00
36964;BME280;22878;48.616;35.326;2023-06-04T02:22:11;101599.38;;;9.99;100.00
36964;BME280;22878;48.616;35.326;2023-06-04T02:24:37;101602.61;;;10.06;100.00
36964;BME280;22878;48.616;35.326;2023-06-04T02:27:04;101606.00;;;10.14;100.00
36964;BME280;22878;48.616;35.326;2023-06-04T02:29:31;101602.56;;;10.19;100.00
36964;BME280;22878;48.616;35.326;2023-06-04T02:31:56;101606.79;;;10.24;100.00
36964;BME280;22878;48.616;35.326;2023-06-04T02:34:22;101609.71;;;10.29;100.00
36964;BME280;22878;48.616;35.326;2023-06-04T02:36:48;101611.39;;;10.35;100.00
36964;BME280;22878;48.616;35.326;2023-06-04T02:39:19;101614.07;;;10.43;100.00
36964;BME280;22878;48.616;35.326;2023-06-04T02:41:44;101609.64;;;10.53;100.00
36964;BME280;22878;48.616;35.326;2023-06-04T02:44:10;101611.05;;;10.65;100.00
36964;BME280;22878;48.616;35.326;2023-06-04T02:46:37;101611.98;;;10.87;100.00
36964;BME280;22878;48.616;35.326;2023-06-04T02:49:02;101617.55;;;11.24;100.00
36964;BME280;22878;48.616;35.326;2023-06-04T02:51:28;101621.48;;;11.60;100.00
36964;BME280;22878;48.616;35.326;2023-06-04T02:53:54;101623.23;;;11.80;100.00
36964;BME280;22878;48.616;35.326;2023-06-04T02:56:20;101624.58;;;11.83;100.00
36964;BME280;22878;48.616;35.326;2023-06-04T02:58:55;101623.36;;;11.82;100.00
36964;BME280;22878;48.616;35.326;2023-06-04T03:01:22;101627.37;;;11.80;100.00
36964;BME280;22878;48.616;35.326;2023-06-04T03:03:49;101633.57;;;11.79;100.00
36964;BME280;22878;48.616;35.326;2023-06-04T03:06:16;101633.42;;;11.83;100.00
36964;BME280;22878;48.616;35.326;2023-06-04T03:08:42;101633.45;;;11.87;100.00
36964;BME280;22878;48.616;35.326;2023-06-04T03:11:08;101638.85;;;11.95;100.00
36964;BME280;22878;48.616;35.326;2023-06-04T03:13:34;101641.06;;;12.17;100.00
36964;BME280;22878;48.616;35.326;2023-06-04T03:16:00;101638.55;;;12.52;100.00
36964;BME280;22878;48.616;35.326;2023-06-04T03:18:27;101639.96;;;13.02;100.00
36964;BME280;22878;48.616;35.326;2023-06-04T03:20:53;101642.00;;;13.64;100.00
36964;BME280;22878;48.616;35.326;2023-06-04T03:23:20;101643.28;;;14.32;100.00
36964;BME280;22878;48.616;35.326;2023-06-04T03:25:45;101636.92;;;14.99;100.00
36964;BME280;22878;48.616;35.326;2023-06-04T03:28:11;101639.79;;;15.58;100.00
36964;BME280;22878;48.616;35.326;2023-06-04T03:30:37;101638.26;;;16.04;100.00
36964;BME280;22878;48.616;35.326;2023-06-04T03:33:02;101639.83;;;16.41;100.00
36964;BME280;22878;48.616;35.326;2023-06-04T03:35:28;101637.63;;;16.71;100.00
36964;BME280;22878;48.616;35.326;2023-06-04T03:37:54;101638.08;;;16.93;100.00
36964;BME280;22878;48.616;35.326;2023-06-04T03:40:20;101647.38;;;17.29;100.00
36964;BME280;22878;48.616;35.326;2023-06-04T03:42:45;101650.30;;;17.58;99.99
36964;BME280;22878;48.616;35.326;2023-06-04T03:45:11;101649.38;;;17.80;98.35
36964;BME280;22878;48.616;35.326;2023-06-04T03:47:38;101653.89;;;18.00;94.92
36964;BME280;22878;48.616;35.326;2023-06-04T03:50:04;101658.68;;;18.15;93.04
36964;BME280;22878;48.616;35.326;2023-06-04T03:52:30;101659.41;;;18.44;91.43
36964;BME280;22878;48.616;35.326;2023-06-04T03:54:56;101656.97;;;18.80;90.31
36964;BME280;22878;48.616;35.326;2023-06-04T03:57:22;101652.66;;;19.11;85.30
36964;BME280;22878;48.616;35.326;2023-06-04T03:59:48;101654.77;;;19.18;84.29
36964;BME280;22878;48.616;35.326;2023-06-04T04:02:13;101655.67;;;19.28;81.12
36964;BME280;22878;48.616;35.326;2023-06-04T04:04:39;101658.88;;;19.43;80.69
36964;BME280;22878;48.616;35.326;2023-06-04T04:07:05;101663.33;;;19.58;78.86
36964;BME280;22878;48.616;35.326;2023-06-04T04:09:34;101660.92;;;19.67;78.50
36964;BME280;22878;48.616;35.326;2023-06-04T04:11:59;101662.29;;;19.91;75.97
36964;BME280;22878;48.616;35.326;2023-06-04T04:14:25;101659.08;;;19.93;74.64
36964;BME280;22878;48.616;35.326;2023-06-04T04:16:50;101661.54;;;19.90;71.28
36964;BME280;22878;48.616;35.326;2023-06-04T04:19:16;101658.65;;;19.74;70.00
36964;BME280;22878;48.616;35.326;2023-06-04T04:21:41;101660.61;;;19.70;69.71
36964;BME280;22878;48.616;35.326;2023-06-04T04:24:07;101663.31;;;19.88;69.18
36964;BME280;22878;48.616;35.326;2023-06-04T04:26:32;101662.83;;;19.94;67.11
36964;BME280;22878;48.616;35.326;2023-06-04T04:28:59;101666.91;;;19.73;66.26
36964;BME280;22878;48.616;35.326;2023-06-04T04:31:26;101666.23;;;19.62;65.72
36964;BME280;22878;48.616;35.326;2023-06-04T04:33:55;101671.33;;;19.67;66.10
36964;BME280;22878;48.616;35.326;2023-06-04T04:36:20;101673.28;;;19.95;65.94
36964;BME280;22878;48.616;35.326;2023-06-04T04:38:46;101672.84;;;20.37;65.15
36964;BME280;22878;48.616;35.326;2023-06-04T04:41:11;101669.80;;;20.57;62.38
36964;BME280;22878;48.616;35.326;2023-06-04T04:43:38;101668.23;;;20.64;62.56
36964;BME280;22878;48.616;35.326;2023-06-04T04:46:06;101677.55;;;21.11;62.31
36964;BME280;22878;48.616;35.326;2023-06-04T04:48:32;101676.70;;;21.35;60.66
36964;BME280;22878;48.616;35.326;2023-06-04T04:50:58;101674.77;;;21.40;59.94
36964;BME280;22878;48.616;35.326;2023-06-04T04:53:24;101674.45;;;21.43;57.89
36964;BME280;22878;48.616;35.326;2023-06-04T04:55:49;101675.61;;;21.15;57.11
36964;BME280;22878;48.616;35.326;2023-06-04T04:58:15;101673.41;;;21.04;55.89
36964;BME280;22878;48.616;35.326;2023-06-04T05:00:41;101676.98;;;21.06;56.90
36964;BME280;22878;48.616;35.326;2023-06-04T05:03:07;101679.51;;;21.23;56.21
36964;BME280;22878;48.616;35.326;2023-06-04T05:05:33;101675.65;;;21.43;54.37
36964;BME280;22878;48.616;35.326;2023-06-04T05:07:59;101677.15;;;21.40;52.90
36964;BME280;22878;48.616;35.326;2023-06-04T05:10:24;101687.89;;;21.63;52.40
36964;BME280;22878;48.616;35.326;2023-06-04T05:12:54;101692.14;;;22.02;50.92
36964;BME280;22878;48.616;35.326;2023-06-04T05:15:20;101695.30;;;22.25;49.55
36964;BME280;22878;48.616;35.326;2023-06-04T05:17:46;101695.36;;;22.28;49.05
36964;BME280;22878;48.616;35.326;2023-06-04T05:20:12;101689.52;;;22.27;48.75
36964;BME280;22878;48.616;35.326;2023-06-04T05:22:38;101692.23;;;22.42;48.71
36964;BME280;22878;48.616;35.326;2023-06-04T05:25:04;101694.25;;;22.50;48.14
36964;BME280;22878;48.616;35.326;2023-06-04T05:27:32;101692.29;;;22.33;47.83
36964;BME280;22878;48.616;35.326;2023-06-04T05:29:58;101697.80;;;22.46;47.57
36964;BME280;22878;48.616;35.326;2023-06-04T05:32:24;101697.48;;;22.35;46.31
36964;BME280;22878;48.616;35.326;2023-06-04T05:34:56;101693.83;;;22.24;45.54
36964;BME280;22878;48.616;35.326;2023-06-04T05:37:26;101698.62;;;22.24;45.55
36964;BME280;22878;48.616;35.326;2023-06-04T05:39:57;101699.95;;;22.16;44.82
36964;BME280;22878;48.616;35.326;2023-06-04T05:42:23;101695.84;;;22.13;45.30
36964;BME280;22878;48.616;35.326;2023-06-04T05:44:49;101699.38;;;22.25;44.85
36964;BME280;22878;48.616;35.326;2023-06-04T05:47:16;101698.60;;;22.25;44.09
36964;BME280;22878;48.616;35.326;2023-06-04T05:49:44;101699.11;;;22.29;44.81
36964;BME280;22878;48.616;35.326;2023-06-04T05:52:10;101696.96;;;22.55;44.47
36964;BME280;22878;48.616;35.326;2023-06-04T05:54:36;101701.55;;;23.04;44.54
36964;BME280;22878;48.616;35.326;2023-06-04T05:57:05;101702.10;;;23.61;43.48
36964;BME280;22878;48.616;35.326;2023-06-04T05:59:31;101691.46;;;23.82;42.22
36964;BME280;22878;48.616;35.326;2023-06-04T06:01:57;101690.38;;;23.85;42.08
36964;BME280;22878;48.616;35.326;2023-06-04T06:04:23;101683.35;;;24.00;42.07
36964;BME280;22878;48.616;35.326;2023-06-04T06:06:48;101684.11;;;24.12;42.55
36964;BME280;22878;48.616;35.326;2023-06-04T06:09:17;101689.94;;;24.60;41.33
36964;BME280;22878;48.616;35.326;2023-06-04T06:11:43;101679.30;;;24.71;40.77
36964;BME280;22878;48.616;35.326;2023-06-04T06:14:09;101679.23;;;24.64;38.95
36964;BME280;22878;48.616;35.326;2023-06-04T06:16:34;101677.51;;;24.44;39.15
36964;BME280;22878;48.616;35.326;2023-06-04T06:19:00;101679.93;;;24.42;38.07
36964;BME280;22878;48.616;35.326;2023-06-04T06:21:26;101676.16;;;24.28;37.67
36964;BME280;22878;48.616;35.326;2023-06-04T06:23:53;101680.04;;;24.44;37.46
36964;BME280;22878;48.616;35.326;2023-06-04T06:26:19;101680.59;;;24.72;36.88
36964;BME280;22878;48.616;35.326;2023-06-04T06:28:44;101676.73;;;24.61;36.82
36964;BME280;22878;48.616;35.326;2023-06-04T06:31:10;101677.73;;;24.89;37.28
36964;BME280;22878;48.616;35.326;2023-06-04T06:33:35;101677.28;;;25.49;37.16
36964;BME280;22878;48.616;35.326;2023-06-04T06:36:12;101677.88;;;25.77;35.81
36964;BME280;22878;48.616;35.326;2023-06-04T06:38:38;101673.48;;;26.02;35.75
36964;BME280;22878;48.616;35.326;2023-06-04T06:41:04;101677.06;;;26.34;36.08
36964;BME280;22878;48.616;35.326;2023-06-04T06:43:30;101669.50;;;26.46;34.92
36964;BME280;22878;48.616;35.326;2023-06-04T06:45:57;101662.09;;;26.59;34.90
36964;BME280;22878;48.616;35.326;2023-06-04T06:48:22;101655.42;;;26.45;34.92
36964;BME280;22878;48.616;35.326;2023-06-04T06:50:48;101653.05;;;26.30;34.74
36964;BME280;22878;48.616;35.326;2023-06-04T06:53:14;101660.14;;;26.23;33.82
36964;BME280;22878;48.616;35.326;2023-06-04T06:55:39;101655.29;;;25.79;33.80
36964;BME280;22878;48.616;35.326;2023-06-04T06:58:05;101665.46;;;26.04;34.33
36964;BME280;22878;48.616;35.326;2023-06-04T07:00:30;101666.89;;;26.14;33.79
36964;BME280;22878;48.616;35.326;2023-06-04T07:02:56;101660.59;;;26.00;34.28
36964;BME280;22878;48.616;35.326;2023-06-04T07:05:21;101666.76;;;26.22;33.44
36964;BME280;22878;48.616;35.326;2023-06-04T07:07:47;101669.50;;;26.09;33.88
36964;BME280;22878;48.616;35.326;2023-06-04T07:10:13;101663.40;;;26.03;33.36
36964;BME280;22878;48.616;35.326;2023-06-04T07:12:39;101668.62;;;26.10;33.75
36964;BME280;22878;48.616;35.326;2023-06-04T07:15:06;101669.96;;;26.10;32.94
36964;BME280;22878;48.616;35.326;2023-06-04T07:17:34;101674.18;;;25.82;32.85
36964;BME280;22878;48.616;35.326;2023-06-04T07:20:02;101669.61;;;25.55;32.70
36964;BME280;22878;48.616;35.326;2023-06-04T07:22:35;101675.67;;;25.73;33.25
36964;BME280;22878;48.616;35.326;2023-06-04T07:25:01;101674.06;;;25.85;32.59
36964;BME280;22878;48.616;35.326;2023-06-04T07:27:26;101675.48;;;26.12;32.76
36964;BME280;22878;48.616;35.326;2023-06-04T07:29:52;101673.69;;;26.17;32.52
36964;BME280;22878;48.616;35.326;2023-06-04T07:32:18;101679.44;;;26.17;32.57
36964;BME280;22878;48.616;35.326;2023-06-04T07:34:43;101668.84;;;26.45;32.83
36964;BME280;22878;48.616;35.326;2023-06-04T07:37:09;101672.75;;;27.19;32.41
36964;BME280;22878;48.616;35.326;2023-06-04T07:39:35;101681.56;;;27.01;30.89
36964;BME280;22878;48.616;35.326;2023-06-04T07:42:01;101669.64;;;26.82;31.65
36964;BME280;22878;48.616;35.326;2023-06-04T07:44:27;101676.30;;;27.19;31.75
36964;BME280;22878;48.616;35.326;2023-06-04T07:46:52;101681.33;;;27.45;30.97
36964;BME280;22878;48.616;35.326;2023-06-04T07:49:18;101678.46;;;27.39;30.94
36964;BME280;22878;48.616;35.326;2023-06-04T07:51:44;101678.75;;;27.49;31.05
36964;BME280;22878;48.616;35.326;2023-06-04T07:54:09;101677.52;;;27.52;29.98
36964;BME280;22878;48.616;35.326;2023-06-04T07:56:35;101678.67;;;27.69;29.91
36964;BME280;22878;48.616;35.326;2023-06-04T07:59:01;101680.16;;;27.58;29.45
36964;BME280;22878;48.616;35.326;2023-06-04T08:01:27;101676.45;;;27.04;29.17
36964;BME280;22878;48.616;35.326;2023-06-04T08:03:52;101675.77;;;26.54;29.39
36964;BME280;22878;48.616;35.326;2023-06-04T08:06:18;101680.25;;;26.31;30.32
36964;BME280;22878;48.616;35.326;2023-06-04T08:08:45;101674.83;;;26.74;30.00
36964;BME280;22878;48.616;35.326;2023-06-04T08:11:14;101677.23;;;27.09;29.72
36964;BME280;22878;48.616;35.326;2023-06-04T08:13:40;101677.27;;;27.22;29.88
36964;BME280;22878;48.616;35.326;2023-06-04T08:16:06;101670.60;;;27.78;31.35
36964;BME280;22878;48.616;35.326;2023-06-04T08:18:33;101669.48;;;28.41;29.53
36964;BME280;22878;48.616;35.326;2023-06-04T08:20:58;101677.02;;;28.02;28.66
36964;BME280;22878;48.616;35.326;2023-06-04T08:23:24;101673.50;;;27.68;28.45
36964;BME280;22878;48.616;35.326;2023-06-04T08:25:49;101672.73;;;27.41;29.39
36964;BME280;22878;48.616;35.326;2023-06-04T08:28:16;101676.95;;;27.81;29.74
36964;BME280;22878;48.616;35.326;2023-06-04T08:30:44;101671.21;;;27.92;28.37
36964;BME280;22878;48.616;35.326;2023-06-04T08:33:11;101677.05;;;27.55;27.86
36964;BME280;22878;48.616;35.326;2023-06-04T08:35:37;101676.75;;;26.80;28.17
36964;BME280;22878;48.616;35.326;2023-06-04T08:38:02;101677.84;;;26.54;29.05
36964;BME280;22878;48.616;35.326;2023-06-04T08:40:28;101677.09;;;26.85;29.26
36964;BME280;22878;48.616;35.326;2023-06-04T08:42:55;101672.91;;;26.60;29.11
36964;BME280;22878;48.616;35.326;2023-06-04T08:45:24;101672.65;;;26.52;29.52
36964;BME280;22878;48.616;35.326;2023-06-04T08:47:51;101676.20;;;26.23;29.27
36964;BME280;22878;48.616;35.326;2023-06-04T08:50:20;101669.82;;;26.13;29.45
36964;BME280;22878;48.616;35.326;2023-06-04T08:52:46;101672.45;;;26.45;29.79
36964;BME280;22878;48.616;35.326;2023-06-04T08:55:13;101669.23;;;26.51;29.54
36964;BME280;22878;48.616;35.326;2023-06-04T08:57:39;101670.50;;;26.67;30.11
36964;BME280;22878;48.616;35.326;2023-06-04T09:00:06;101664.92;;;27.24;30.04
36964;BME280;22878;48.616;35.326;2023-06-04T09:02:35;101672.20;;;27.63;28.88
36964;BME280;22878;48.616;35.326;2023-06-04T09:05:04;101667.03;;;27.04;28.87
36964;BME280;22878;48.616;35.326;2023-06-04T09:07:30;101667.27;;;26.94;29.22
36964;BME280;22878;48.616;35.326;2023-06-04T09:09:56;101667.77;;;27.21;29.74
36964;BME280;22878;48.616;35.326;2023-06-04T09:12:24;101674.95;;;27.38;29.13
36964;BME280;22878;48.616;35.326;2023-06-04T09:14:50;101673.38;;;27.38;28.79
36964;BME280;22878;48.616;35.326;2023-06-04T09:17:21;101664.73;;;27.17;29.14
36964;BME280;22878;48.616;35.326;2023-06-04T09:19:48;101658.96;;;27.06;28.94
36964;BME280;22878;48.616;35.326;2023-06-04T09:22:13;101664.27;;;26.89;29.80
36964;BME280;22878;48.616;35.326;2023-06-04T09:24:47;101660.73;;;26.83;28.74
36964;BME280;22878;48.616;35.326;2023-06-04T09:27:19;101656.90;;;26.09;29.42
36964;BME280;22878;48.616;35.326;2023-06-04T09:29:59;101650.73;;;25.79;29.90
36964;BME280;22878;48.616;35.326;2023-06-04T09:32:27;101654.67;;;25.79;30.66
36964;BME280;22878;48.616;35.326;2023-06-04T09:34:56;101655.64;;;25.86;29.85
36964;BME280;22878;48.616;35.326;2023-06-04T09:37:22;101649.02;;;25.58;30.48
36964;BME280;22878;48.616;35.326;2023-06-04T09:39:55;101644.50;;;25.79;31.41
36964;BME280;22878;48.616;35.326;2023-06-04T09:42:22;101642.64;;;26.10;30.77
36964;BME280;22878;48.616;35.326;2023-06-04T09:44:48;101629.76;;;26.18;30.82
36964;BME280;22878;48.616;35.326;2023-06-04T09:47:14;101626.85;;;26.19;31.01
36964;BME280;22878;48.616;35.326;2023-06-04T09:49:44;101631.16;;;26.22;30.22
36964;BME280;22878;48.616;35.326;2023-06-04T09:52:10;101633.17;;;25.97;29.64
36964;BME280;22878;48.616;35.326;2023-06-04T09:54:39;101630.84;;;25.79;29.88
36964;BME280;22878;48.616;35.326;2023-06-04T09:57:18;101630.84;;;25.54;30.13
36964;BME280;22878;48.616;35.326;2023-06-04T09:59:49;101619.40;;;25.52;30.16
36964;BME280;22878;48.616;35.326;2023-06-04T10:02:21;101612.80;;;25.40;31.03
36964;BME280;22878;48.616;35.326;2023-06-04T10:04:54;101616.77;;;25.40;31.14
36964;BME280;22878;48.616;35.326;2023-06-04T10:07:23;101616.16;;;25.01;31.35
36964;BME280;22878;48.616;35.326;2023-06-04T10:09:50;101614.87;;;24.99;31.69
36964;BME280;22878;48.616;35.326;2023-06-04T10:12:16;101616.77;;;24.99;30.22
36964;BME280;22878;48.616;35.326;2023-06-04T10:14:56;101608.38;;;24.56;30.57
36964;BME280;22878;48.616;35.326;2023-06-04T10:17:23;101611.41;;;24.56;31.73
36964;BME280;22878;48.616;35.326;2023-06-04T10:19:50;101617.92;;;24.79;31.56
36964;BME280;22878;48.616;35.326;2023-06-04T10:22:20;101613.60;;;24.58;31.56
36964;BME280;22878;48.616;35.326;2023-06-04T10:24:45;101609.58;;;24.83;31.46
36964;BME280;22878;48.616;35.326;2023-06-04T10:27:12;101609.59;;;25.14;31.09
36964;BME280;22878;48.616;35.326;2023-06-04T10:29:39;101606.71;;;25.17;30.43
36964;BME280;22878;48.616;35.326;2023-06-04T10:32:05;101606.93;;;25.14;30.47
36964;BME280;22878;48.616;35.326;2023-06-04T10:34:31;101607.06;;;25.09;30.34
36964;BME280;22878;48.616;35.326;2023-06-04T10:36:57;101597.95;;;25.05;30.75
36964;BME280;22878;48.616;35.326;2023-06-04T10:39:29;101588.20;;;25.34;31.37
36964;BME280;22878;48.616;35.326;2023-06-04T10:42:04;101591.63;;;25.25;30.45
36964;BME280;22878;48.616;35.326;2023-06-04T10:44:32;101599.79;;;25.19;30.81
36964;BME280;22878;48.616;35.326;2023-06-04T10:47:18;101591.48;;;24.74;30.15
36964;BME280;22878;48.616;35.326;2023-06-04T10:49:44;101591.16;;;24.58;30.82
36964;BME280;22878;48.616;35.326;2023-06-04T10:52:10;101591.30;;;24.73;31.25
36964;BME280;22878;48.616;35.326;2023-06-04T10:54:36;101591.58;;;24.76;30.38
36964;BME280;22878;48.616;35.326;2023-06-04T10:57:13;101591.83;;;24.76;30.35
36964;BME280;22878;48.616;35.326;2023-06-04T10:59:39;101595.75;;;24.63;29.51
36964;BME280;22878;48.616;35.326;2023-06-04T11:02:08;101596.08;;;24.26;29.53
36964;BME280;22878;48.616;35.326;2023-06-04T11:04:35;101595.99;;;24.22;29.26
36964;BME280;22878;48.616;35.326;2023-06-04T11:07:06;101591.83;;;24.10;29.77
36964;BME280;22878;48.616;35.326;2023-06-04T11:09:57;101597.83;;;24.10;30.57
36964;BME280;22878;48.616;35.326;2023-06-04T11:12:22;101594.23;;;24.10;31.13
36964;BME280;22878;48.616;35.326;2023-06-04T11:14:57;101598.09;;;24.36;31.27
36964;BME280;22878;48.616;35.326;2023-06-04T11:17:24;101595.58;;;24.60;30.78
36964;BME280;22878;48.616;35.326;2023-06-04T11:19:49;101594.11;;;24.74;31.00
36964;BME280;22878;48.616;35.326;2023-06-04T11:22:15;101594.31;;;24.81;30.59
36964;BME280;22878;48.616;35.326;2023-06-04T11:24:41;101593.61;;;24.77;30.03
36964;BME280;22878;48.616;35.326;2023-06-04T11:27:06;101597.02;;;24.61;30.29
36964;BME280;22878;48.616;35.326;2023-06-04T11:29:32;101601.84;;;24.67;30.55
36964;BME280;22878;48.616;35.326;2023-06-04T11:31:58;101598.63;;;24.81;30.83
36964;BME280;22878;48.616;35.326;2023-06-04T11:34:27;101602.13;;;24.99;30.94
36964;BME280;22878;48.616;35.326;2023-06-04T11:36:53;101599.42;;;24.99;30.14
36964;BME280;22878;48.616;35.326;2023-06-04T11:39:22;101598.35;;;24.62;29.34
36964;BME280;22878;48.616;35.326;2023-06-04T11:41:50;101595.20;;;24.35;29.80
36964;BME280;22878;48.616;35.326;2023-06-04T11:44:18;101591.20;;;24.33;29.90
36964;BME280;22878;48.616;35.326;2023-06-04T11:46:44;101592.21;;;24.14;29.72
36964;BME280;22878;48.616;35.326;2023-06-04T11:49:17;101590.19;;;24.02;30.20
36964;BME280;22878;48.616;35.326;2023-06-04T11:51:51;101591.33;;;24.03;30.29
36964;BME280;22878;48.616;35.326;2023-06-04T11:54:19;101600.17;;;24.22;30.71
36964;BME280;22878;48.616;35.326;2023-06-04T11:56:46;101592.06;;;24.37;31.03
36964;BME280;22878;48.616;35.326;2023-06-04T11:59:14;101590.29;;;24.58;30.30
36964;BME280;22878;48.616;35.326;2023-06-04T12:01:42;101587.91;;;24.52;31.09
36964;BME280;22878;48.616;35.326;2023-06-04T12:04:19;101582.59;;;24.60;30.46
36964;BME280;22878;48.616;35.326;2023-06-04T12:07:01;101584.76;;;24.28;31.22
36964;BME280;22878;48.616;35.326;2023-06-04T12:09:32;101584.95;;;24.49;31.10
36964;BME280;22878;48.616;35.326;2023-06-04T12:12:04;101589.71;;;24.57;29.84
36964;BME280;22878;48.616;35.326;2023-06-04T12:14:30;101589.23;;;24.15;29.40
36964;BME280;22878;48.616;35.326;2023-06-04T12:19:25;101591.80;;;24.23;30.86
36964;BME280;22878;48.616;35.326;2023-06-04T12:22:05;101586.62;;;24.33;30.04
36964;BME280;22878;48.616;35.326;2023-06-04T12:24:32;101581.11;;;24.24;30.83
36964;BME280;22878;48.616;35.326;2023-06-04T12:27:06;101576.02;;;24.39;31.09
36964;BME280;22878;48.616;35.326;2023-06-04T12:29:37;101582.23;;;24.61;31.41
36964;BME280;22878;48.616;35.326;2023-06-04T12:32:07;101587.66;;;24.48;30.33
36964;BME280;22878;48.616;35.326;2023-06-04T12:34:37;101587.42;;;24.37;30.63
36964;BME280;22878;48.616;35.326;2023-06-04T12:37:03;101591.14;;;24.28;29.96
36964;BME280;22878;48.616;35.326;2023-06-04T12:39:34;101587.33;;;24.25;30.65
36964;BME280;22878;48.616;35.326;2023-06-04T12:42:02;101580.92;;;24.43;30.30
36964;BME280;22878;48.616;35.326;2023-06-04T12:44:28;101583.55;;;24.55;30.20